sensor_id;sensor_type;location;lat;lon;timestamp;noise_LAeq;noise_LA_min;noise_LA_max;noise_LA01;noise_LA95
72805;Laerm;60920;48.748;19.142;2023-02-01T00:02:16;36.91;35.42;39.61;;
72805;Laerm;60920;48.748;19.142;2023-02-01T00:04:42;36.86;35.28;39.50;;
72805;Laerm;60920;48.748;19.142;2023-02-01T00:07:07;36.89;35.21;38.93;;
72805;Laerm;60920;48.748;19.142;2023-02-01T00:09:33;36.91;35.31;38.76;;
72805;Laerm;60920;48.748;19.142;2023-02-01T00:11:58;36.96;35.24;40.00;;
72805;Laerm;60920;48.748;19.142;2023-02-01T00:14:27;36.94;35.26;40.79;;
72805;Laerm;60920;48.748;19.142;2023-02-01T00:16:52;37.14;35.48;39.49;;
72805;Laerm;60920;48.748;19.142;2023-02-01T00:19:17;37.10;35.46;39.10;;
72805;Laerm;60920;48.748;19.142;2023-02-01T00:21:43;37.02;35.15;45.27;;
72805;Laerm;60920;48.748;19.142;2023-02-01T00:24:09;36.55;34.79;49.53;;
72805;Laerm;60920;48.748;19.142;2023-02-01T00:26:39;36.24;34.47;38.26;;
72805;Laerm;60920;48.748;19.142;2023-02-01T00:29:07;35.51;33.56;39.19;;
72805;Laerm;60920;48.748;19.142;2023-02-01T00:31:34;34.46;33.08;38.78;;
72805;Laerm;60920;48.748;19.142;2023-02-01T00:33:59;34.25;32.12;37.10;;
72805;Laerm;60920;48.748;19.142;2023-02-01T00:36:24;34.07;32.63;41.54;;
72805;Laerm;60920;48.748;19.142;2023-02-01T00:38:50;34.00;32.61;35.47;;
72805;Laerm;60920;48.748;19.142;2023-02-01T00:41:18;34.04;32.31;36.34;;
72805;Laerm;60920;48.748;19.142;2023-02-01T00:43:44;33.70;32.12;35.41;;
72805;Laerm;60920;48.748;19.142;2023-02-01T00:46:11;33.20;31.87;34.49;;
72805;Laerm;60920;48.748;19.142;2023-02-01T00:48:37;33.20;31.78;35.65;;
72805;Laerm;60920;48.748;19.142;2023-02-01T00:51:03;33.13;31.69;34.69;;
72805;Laerm;60920;48.748;19.142;2023-02-01T00:53:29;32.98;31.48;34.66;;
72805;Laerm;60920;48.748;19.142;2023-02-01T00:55:55;33.28;31.84;35.56;;
72805;Laerm;60920;48.748;19.142;2023-02-01T00:58:21;33.17;31.39;34.94;;
72805;Laerm;60920;48.748;19.142;2023-02-01T01:00:48;33.04;31.38;35.83;;
72805;Laerm;60920;48.748;19.142;2023-02-01T01:03:14;33.18;31.59;37.23;;
72805;Laerm;60920;48.748;19.142;2023-02-01T01:05:51;33.72;31.59;41.24;;
72805;Laerm;60920;48.748;19.142;2023-02-01T01:08:21;33.38;31.57;38.71;;
72805;Laerm;60920;48.748;19.142;2023-02-01T01:10:47;33.68;31.41;41.04;;
72805;Laerm;60920;48.748;19.142;2023-02-01T01:13:12;33.82;31.91;37.71;;
72805;Laerm;60920;48.748;19.142;2023-02-01T01:15:38;33.62;31.95;36.41;;
72805;Laerm;60920;48.748;19.142;2023-02-01T01:18:03;33.56;32.15;41.28;;
72805;Laerm;60920;48.748;19.142;2023-02-01T01:20:29;33.78;32.16;42.36;;
72805;Laerm;60920;48.748;19.142;2023-02-01T01:22:54;33.99;32.46;37.98;;
72805;Laerm;60920;48.748;19.142;2023-02-01T01:25:19;34.32;32.56;37.48;;
72805;Laerm;60920;48.748;19.142;2023-02-01T01:27:44;34.53;32.76;36.54;;
72805;Laerm;60920;48.748;19.142;2023-02-01T01:30:10;35.14;33.47;39.54;;
72805;Laerm;60920;48.748;19.142;2023-02-01T01:32:35;35.82;33.58;38.22;;
72805;Laerm;60920;48.748;19.142;2023-02-01T01:35:00;35.72;33.83;52.66;;
72805;Laerm;60920;48.748;19.142;2023-02-01T01:37:26;35.35;33.88;37.44;;
72805;Laerm;60920;48.748;19.142;2023-02-01T01:39:51;35.41;33.73;37.13;;
72805;Laerm;60920;48.748;19.142;2023-02-01T01:42:16;35.54;34.23;37.81;;
72805;Laerm;60920;48.748;19.142;2023-02-01T01:47:23;35.44;33.96;44.05;;
72805;Laerm;60920;48.748;19.142;2023-02-01T01:49:48;35.38;33.93;36.62;;
72805;Laerm;60920;48.748;19.142;2023-02-01T01:52:14;35.39;33.89;36.96;;
72805;Laerm;60920;48.748;19.142;2023-02-01T01:54:43;35.51;33.99;41.60;;
72805;Laerm;60920;48.748;19.142;2023-02-01T01:57:53;35.46;33.82;41.55;;
72805;Laerm;60920;48.748;19.142;2023-02-01T02:00:09;35.39;33.55;44.18;;
72805;Laerm;60920;48.748;19.142;2023-02-01T02:02:35;35.76;33.92;52.80;;
72805;Laerm;60920;48.748;19.142;2023-02-01T02:05:01;35.60;34.00;53.73;;
72805;Laerm;60920;48.748;19.142;2023-02-01T02:07:31;35.41;33.81;39.20;;
72805;Laerm;60920;48.748;19.142;2023-02-01T02:09:57;35.90;33.96;47.09;;
72805;Laerm;60920;48.748;19.142;2023-02-01T02:12:22;35.87;34.05;55.99;;
72805;Laerm;60920;48.748;19.142;2023-02-01T02:14:48;35.94;34.12;56.57;;
72805;Laerm;60920;48.748;19.142;2023-02-01T02:23:00;36.67;34.30;57.47;;
72805;Laerm;60920;48.748;19.142;2023-02-01T02:28:03;36.95;34.90;54.20;;
72805;Laerm;60920;48.748;19.142;2023-02-01T02:35:48;38.39;36.66;43.84;;
72805;Laerm;60920;48.748;19.142;2023-02-01T02:38:26;38.24;36.59;45.73;;
72805;Laerm;60920;48.748;19.142;2023-02-01T02:43:47;38.52;36.90;49.13;;
72805;Laerm;60920;48.748;19.142;2023-02-01T02:46:35;38.56;36.80;42.68;;
72805;Laerm;60920;48.748;19.142;2023-02-01T02:49:23;39.05;37.14;44.56;;
72805;Laerm;60920;48.748;19.142;2023-02-01T02:51:53;39.15;37.56;42.03;;
72805;Laerm;60920;48.748;19.142;2023-02-01T02:54:43;39.20;37.63;44.54;;
72805;Laerm;60920;48.748;19.142;2023-02-01T02:57:22;39.37;37.32;41.23;;
72805;Laerm;60920;48.748;19.142;2023-02-01T03:00:11;39.27;37.57;43.92;;
72805;Laerm;60920;48.748;19.142;2023-02-01T03:02:55;39.30;37.68;44.39;;
72805;Laerm;60920;48.748;19.142;2023-02-01T03:05:41;39.23;37.62;46.74;;
72805;Laerm;60920;48.748;19.142;2023-02-01T03:08:11;39.22;37.75;41.38;;
72805;Laerm;60920;48.748;19.142;2023-02-01T03:13:17;39.12;37.38;46.19;;
72805;Laerm;60920;48.748;19.142;2023-02-01T03:15:48;38.61;36.85;40.37;;
72805;Laerm;60920;48.748;19.142;2023-02-01T03:18:18;38.37;36.87;46.75;;
72805;Laerm;60920;48.748;19.142;2023-02-01T03:20:48;38.52;36.91;51.75;;
72805;Laerm;60920;48.748;19.142;2023-02-01T03:23:16;38.50;36.87;54.33;;
72805;Laerm;60920;48.748;19.142;2023-02-01T03:25:42;38.59;36.77;59.28;;
72805;Laerm;60920;48.748;19.142;2023-02-01T03:28:09;38.74;36.76;55.62;;
72805;Laerm;60920;48.748;19.142;2023-02-01T03:30:42;38.77;36.93;59.08;;
72805;Laerm;60920;48.748;19.142;2023-02-01T03:33:12;38.61;36.83;54.24;;
72805;Laerm;60920;48.748;19.142;2023-02-01T03:38:40;39.17;37.40;48.81;;
72805;Laerm;60920;48.748;19.142;2023-02-01T03:41:18;39.28;37.46;47.65;;
72805;Laerm;60920;48.748;19.142;2023-02-01T03:43:55;39.32;37.48;46.56;;
72805;Laerm;60920;48.748;19.142;2023-02-01T03:49:09;39.31;37.67;43.18;;
72805;Laerm;60920;48.748;19.142;2023-02-01T03:51:37;39.22;37.70;41.11;;
72805;Laerm;60920;48.748;19.142;2023-02-01T03:54:03;39.26;37.56;42.59;;
72805;Laerm;60920;48.748;19.142;2023-02-01T03:56:30;39.33;37.58;41.84;;
72805;Laerm;60920;48.748;19.142;2023-02-01T03:58:56;39.37;37.88;41.35;;
72805;Laerm;60920;48.748;19.142;2023-02-01T04:01:28;39.37;37.87;41.78;;
72805;Laerm;60920;48.748;19.142;2023-02-01T04:03:54;39.32;37.63;41.09;;
72805;Laerm;60920;48.748;19.142;2023-02-01T04:06:19;39.23;37.39;41.44;;
72805;Laerm;60920;48.748;19.142;2023-02-01T04:08:45;39.15;37.47;42.60;;
72805;Laerm;60920;48.748;19.142;2023-02-01T04:11:10;39.00;37.48;41.08;;
72805;Laerm;60920;48.748;19.142;2023-02-01T04:13:35;38.80;37.28;42.04;;
72805;Laerm;60920;48.748;19.142;2023-02-01T04:16:00;38.76;37.28;41.60;;
72805;Laerm;60920;48.748;19.142;2023-02-01T04:18:26;38.82;37.15;41.70;;
72805;Laerm;60920;48.748;19.142;2023-02-01T04:20:51;38.83;37.23;41.24;;
72805;Laerm;60920;48.748;19.142;2023-02-01T04:23:17;38.78;37.10;40.39;;
72805;Laerm;60920;48.748;19.142;2023-02-01T04:25:42;38.83;37.05;40.94;;
72805;Laerm;60920;48.748;19.142;2023-02-01T04:28:07;38.81;37.31;40.41;;
72805;Laerm;60920;48.748;19.142;2023-02-01T04:30:32;38.79;37.31;41.42;;
72805;Laerm;60920;48.748;19.142;2023-02-01T04:32:58;38.83;37.20;40.83;;
72805;Laerm;60920;48.748;19.142;2023-02-01T04:35:23;38.76;37.07;41.03;;
72805;Laerm;60920;48.748;19.142;2023-02-01T04:37:48;38.77;37.04;41.73;;
72805;Laerm;60920;48.748;19.142;2023-02-01T04:40:14;38.66;36.74;42.14;;
72805;Laerm;60920;48.748;19.142;2023-02-01T04:42:39;38.56;37.00;40.29;;
72805;Laerm;60920;48.748;19.142;2023-02-01T04:45:05;38.59;36.88;41.39;;
72805;Laerm;60920;48.748;19.142;2023-02-01T04:47:30;38.64;37.14;41.29;;
72805;Laerm;60920;48.748;19.142;2023-02-01T04:49:55;38.63;37.16;40.43;;
72805;Laerm;60920;48.748;19.142;2023-02-01T04:52:21;38.62;37.17;40.22;;
72805;Laerm;60920;48.748;19.142;2023-02-01T04:54:46;38.68;37.12;54.51;;
72805;Laerm;60920;48.748;19.142;2023-02-01T04:57:11;38.67;37.03;45.51;;
72805;Laerm;60920;48.748;19.142;2023-02-01T04:59:38;38.69;36.88;41.42;;
72805;Laerm;60920;48.748;19.142;2023-02-01T05:02:04;38.64;37.12;41.85;;
72805;Laerm;60920;48.748;19.142;2023-02-01T05:04:29;38.51;37.17;42.47;;
72805;Laerm;60920;48.748;19.142;2023-02-01T05:06:54;38.51;36.83;42.88;;
72805;Laerm;60920;48.748;19.142;2023-02-01T05:09:20;38.40;36.79;40.15;;
72805;Laerm;60920;48.748;19.142;2023-02-01T05:11:46;38.30;36.75;39.82;;
72805;Laerm;60920;48.748;19.142;2023-02-01T05:14:30;38.18;36.43;41.21;;
72805;Laerm;60920;48.748;19.142;2023-02-01T05:16:56;38.08;36.72;41.31;;
72805;Laerm;60920;48.748;19.142;2023-02-01T05:19:21;38.17;36.57;44.63;;
72805;Laerm;60920;48.748;19.142;2023-02-01T05:21:46;38.18;36.45;40.43;;
72805;Laerm;60920;48.748;19.142;2023-02-01T05:24:12;38.14;36.39;40.32;;
72805;Laerm;60920;48.748;19.142;2023-02-01T05:26:47;38.17;36.66;44.62;;
72805;Laerm;60920;48.748;19.142;2023-02-01T05:29:13;38.21;36.58;47.56;;
72805;Laerm;60920;48.748;19.142;2023-02-01T05:31:38;38.29;36.42;45.96;;
72805;Laerm;60920;48.748;19.142;2023-02-01T05:34:05;38.32;36.99;45.01;;
72805;Laerm;60920;48.748;19.142;2023-02-01T05:36:30;38.29;36.64;44.99;;
72805;Laerm;60920;48.748;19.142;2023-02-01T05:38:56;38.16;36.54;39.84;;
72805;Laerm;60920;48.748;19.142;2023-02-01T05:41:21;38.14;36.62;46.58;;
72805;Laerm;60920;48.748;19.142;2023-02-01T05:43:46;38.12;36.53;43.70;;
72805;Laerm;60920;48.748;19.142;2023-02-01T05:46:12;37.91;36.28;46.58;;
72805;Laerm;60920;48.748;19.142;2023-02-01T05:48:41;38.00;36.51;42.26;;
72805;Laerm;60920;48.748;19.142;2023-02-01T05:51:07;37.85;36.07;44.24;;
72805;Laerm;60920;48.748;19.142;2023-02-01T05:53:32;37.61;35.27;46.25;;
72805;Laerm;60920;48.748;19.142;2023-02-01T05:55:58;37.68;35.94;43.09;;
72805;Laerm;60920;48.748;19.142;2023-02-01T05:58:23;37.60;35.81;39.14;;
72805;Laerm;60920;48.748;19.142;2023-02-01T06:00:49;37.54;35.87;40.06;;
72805;Laerm;60920;48.748;19.142;2023-02-01T06:03:14;37.52;36.10;38.86;;
72805;Laerm;60920;48.748;19.142;2023-02-01T06:05:39;37.58;35.97;42.18;;
72805;Laerm;60920;48.748;19.142;2023-02-01T06:08:05;37.46;35.79;39.63;;
72805;Laerm;60920;48.748;19.142;2023-02-01T06:10:32;37.45;35.59;39.72;;
72805;Laerm;60920;48.748;19.142;2023-02-01T06:13:00;37.46;35.71;39.10;;
72805;Laerm;60920;48.748;19.142;2023-02-01T06:15:28;37.55;35.99;39.46;;
72805;Laerm;60920;48.748;19.142;2023-02-01T06:17:53;37.52;35.90;41.01;;
72805;Laerm;60920;48.748;19.142;2023-02-01T06:20:20;37.40;35.62;39.82;;
72805;Laerm;60920;48.748;19.142;2023-02-01T06:22:45;37.55;35.99;39.19;;
72805;Laerm;60920;48.748;19.142;2023-02-01T06:25:11;37.52;35.99;41.04;;
72805;Laerm;60920;48.748;19.142;2023-02-01T06:27:36;37.48;35.86;39.33;;
72805;Laerm;60920;48.748;19.142;2023-02-01T06:30:03;37.46;35.97;39.21;;
72805;Laerm;60920;48.748;19.142;2023-02-01T06:32:28;37.48;35.80;42.12;;
72805;Laerm;60920;48.748;19.142;2023-02-01T06:34:54;37.55;35.82;38.83;;
72805;Laerm;60920;48.748;19.142;2023-02-01T06:37:21;37.52;36.02;39.76;;
72805;Laerm;60920;48.748;19.142;2023-02-01T06:39:46;37.65;36.09;39.86;;
72805;Laerm;60920;48.748;19.142;2023-02-01T06:42:12;37.61;35.88;39.48;;
72805;Laerm;60920;48.748;19.142;2023-02-01T06:44:37;37.73;36.17;40.13;;
72805;Laerm;60920;48.748;19.142;2023-02-01T06:47:03;37.63;35.98;39.96;;
72805;Laerm;60920;48.748;19.142;2023-02-01T06:49:28;37.76;36.27;39.43;;
72805;Laerm;60920;48.748;19.142;2023-02-01T06:51:54;37.80;36.29;40.95;;
72805;Laerm;60920;48.748;19.142;2023-02-01T06:54:19;37.77;36.01;39.50;;
72805;Laerm;60920;48.748;19.142;2023-02-01T06:56:44;37.87;36.01;39.79;;
72805;Laerm;60920;48.748;19.142;2023-02-01T06:59:10;37.87;36.26;39.50;;
72805;Laerm;60920;48.748;19.142;2023-02-01T07:01:36;37.92;36.50;40.11;;
72805;Laerm;60920;48.748;19.142;2023-02-01T07:04:01;37.92;36.29;40.54;;
72805;Laerm;60920;48.748;19.142;2023-02-01T07:06:26;37.82;36.18;40.66;;
72805;Laerm;60920;48.748;19.142;2023-02-01T07:08:52;37.77;36.02;40.11;;
72805;Laerm;60920;48.748;19.142;2023-02-01T07:11:20;37.65;36.28;39.87;;
72805;Laerm;60920;48.748;19.142;2023-02-01T07:13:46;37.73;36.20;40.84;;
72805;Laerm;60920;48.748;19.142;2023-02-01T07:16:13;37.56;35.60;39.34;;
72805;Laerm;60920;48.748;19.142;2023-02-01T07:18:39;37.56;36.02;39.43;;
72805;Laerm;60920;48.748;19.142;2023-02-01T07:21:04;37.43;35.99;39.38;;
72805;Laerm;60920;48.748;19.142;2023-02-01T07:23:29;37.36;35.78;39.55;;
72805;Laerm;60920;48.748;19.142;2023-02-01T07:25:56;37.24;35.70;39.21;;
72805;Laerm;60920;48.748;19.142;2023-02-01T07:28:21;37.19;35.57;39.17;;
72805;Laerm;60920;48.748;19.142;2023-02-01T07:30:47;37.07;35.26;38.74;;
72805;Laerm;60920;48.748;19.142;2023-02-01T07:33:24;37.10;35.31;39.65;;
72805;Laerm;60920;48.748;19.142;2023-02-01T07:35:51;37.06;35.46;38.94;;
72805;Laerm;60920;48.748;19.142;2023-02-01T07:38:16;37.29;35.60;39.51;;
72805;Laerm;60920;48.748;19.142;2023-02-01T07:40:42;37.17;35.47;39.96;;
72805;Laerm;60920;48.748;19.142;2023-02-01T07:43:08;36.85;35.25;40.35;;
72805;Laerm;60920;48.748;19.142;2023-02-01T07:45:34;37.09;35.21;39.75;;
72805;Laerm;60920;48.748;19.142;2023-02-01T07:48:00;37.12;35.47;40.24;;
72805;Laerm;60920;48.748;19.142;2023-02-01T07:50:25;37.14;34.88;41.71;;
72805;Laerm;60920;48.748;19.142;2023-02-01T07:52:50;37.24;35.36;40.66;;
72805;Laerm;60920;48.748;19.142;2023-02-01T07:55:16;37.34;35.38;39.79;;
72805;Laerm;60920;48.748;19.142;2023-02-01T07:57:41;37.16;35.42;39.12;;
72805;Laerm;60920;48.748;19.142;2023-02-01T08:00:07;37.24;35.62;40.30;;
72805;Laerm;60920;48.748;19.142;2023-02-01T08:02:51;37.02;35.41;40.06;;
72805;Laerm;60920;48.748;19.142;2023-02-01T08:05:16;37.11;35.33;40.21;;
72805;Laerm;60920;48.748;19.142;2023-02-01T08:07:42;37.16;35.52;39.71;;
72805;Laerm;60920;48.748;19.142;2023-02-01T08:10:07;36.93;35.26;40.58;;
72805;Laerm;60920;48.748;19.142;2023-02-01T08:12:36;36.69;34.74;38.65;;
72805;Laerm;60920;48.748;19.142;2023-02-01T08:15:01;36.64;34.62;40.12;;
72805;Laerm;60920;48.748;19.142;2023-02-01T08:17:26;36.83;34.89;39.54;;
72805;Laerm;60920;48.748;19.142;2023-02-01T08:19:53;36.41;34.69;41.31;;
72805;Laerm;60920;48.748;19.142;2023-02-01T08:22:18;36.53;34.70;38.91;;
72805;Laerm;60920;48.748;19.142;2023-02-01T08:24:44;36.62;35.07;40.62;;
72805;Laerm;60920;48.748;19.142;2023-02-01T08:27:09;36.77;35.07;38.83;;
72805;Laerm;60920;48.748;19.142;2023-02-01T08:29:34;36.81;35.04;40.44;;
72805;Laerm;60920;48.748;19.142;2023-02-01T08:32:00;36.98;34.99;40.49;;
72805;Laerm;60920;48.748;19.142;2023-02-01T08:34:25;37.07;35.28;39.69;;
72805;Laerm;60920;48.748;19.142;2023-02-01T08:36:52;37.20;35.60;42.89;;
72805;Laerm;60920;48.748;19.142;2023-02-01T08:39:22;37.72;35.38;52.84;;
72805;Laerm;60920;48.748;19.142;2023-02-01T08:41:47;37.14;35.35;42.08;;
72805;Laerm;60920;48.748;19.142;2023-02-01T08:44:32;37.12;35.33;42.57;;
72805;Laerm;60920;48.748;19.142;2023-02-01T08:46:58;37.00;35.19;41.32;;
72805;Laerm;60920;48.748;19.142;2023-02-01T08:49:23;36.99;35.16;41.91;;
72805;Laerm;60920;48.748;19.142;2023-02-01T08:51:48;36.85;34.69;39.16;;
72805;Laerm;60920;48.748;19.142;2023-02-01T08:54:14;36.78;34.71;39.76;;
72805;Laerm;60920;48.748;19.142;2023-02-01T08:56:39;36.55;34.52;39.72;;
72805;Laerm;60920;48.748;19.142;2023-02-01T08:59:04;36.54;34.76;38.76;;
72805;Laerm;60920;48.748;19.142;2023-02-01T09:01:29;36.55;34.54;41.02;;
72805;Laerm;60920;48.748;19.142;2023-02-01T09:03:55;36.41;34.74;39.32;;
72805;Laerm;60920;48.748;19.142;2023-02-01T09:06:20;36.46;34.61;38.89;;
72805;Laerm;60920;48.748;19.142;2023-02-01T09:08:47;36.61;34.68;38.86;;
72805;Laerm;60920;48.748;19.142;2023-02-01T09:11:14;36.46;34.36;39.03;;
72805;Laerm;60920;48.748;19.142;2023-02-01T09:13:50;36.82;34.59;39.87;;
72805;Laerm;60920;48.748;19.142;2023-02-01T09:16:17;36.94;35.01;40.36;;
72805;Laerm;60920;48.748;19.142;2023-02-01T09:18:44;37.01;35.20;40.72;;
72805;Laerm;60920;48.748;19.142;2023-02-01T09:21:13;37.17;34.98;39.81;;
72805;Laerm;60920;48.748;19.142;2023-02-01T09:23:39;36.77;34.93;40.94;;
72805;Laerm;60920;48.748;19.142;2023-02-01T09:26:06;36.93;35.25;39.00;;
72805;Laerm;60920;48.748;19.142;2023-02-01T09:28:34;36.93;35.19;39.09;;
72805;Laerm;60920;48.748;19.142;2023-02-01T09:31:02;36.29;33.97;41.60;;
72805;Laerm;60920;48.748;19.142;2023-02-01T09:33:28;36.60;35.12;38.40;;
72805;Laerm;60920;48.748;19.142;2023-02-01T09:35:57;36.74;35.17;38.85;;
72805;Laerm;60920;48.748;19.142;2023-02-01T09:38:22;36.86;35.25;39.46;;
72805;Laerm;60920;48.748;19.142;2023-02-01T09:40:47;36.95;35.43;40.42;;
72805;Laerm;60920;48.748;19.142;2023-02-01T09:48:27;37.12;34.92;45.87;;
72805;Laerm;60920;48.748;19.142;2023-02-01T09:50:55;36.90;35.09;39.20;;
72805;Laerm;60920;48.748;19.142;2023-02-01T09:53:23;36.88;34.71;40.17;;
72805;Laerm;60920;48.748;19.142;2023-02-01T09:55:50;36.89;35.10;39.27;;
72805;Laerm;60920;48.748;19.142;2023-02-01T09:58:18;36.68;34.96;40.54;;
72805;Laerm;60920;48.748;19.142;2023-02-01T10:00:51;36.65;35.01;39.77;;
72805;Laerm;60920;48.748;19.142;2023-02-01T10:03:17;36.91;34.43;39.92;;
72805;Laerm;60920;48.748;19.142;2023-02-01T10:10:51;37.19;35.35;41.46;;
72805;Laerm;60920;48.748;19.142;2023-02-01T10:15:46;37.00;34.97;40.05;;
72805;Laerm;60920;48.748;19.142;2023-02-01T10:20:50;36.98;35.09;42.23;;
72805;Laerm;60920;48.748;19.142;2023-02-01T10:28:47;36.93;35.10;39.00;;
72805;Laerm;60920;48.748;19.142;2023-02-01T10:31:14;36.90;34.80;38.78;;
72805;Laerm;60920;48.748;19.142;2023-02-01T10:33:41;37.27;35.51;39.95;;
72805;Laerm;60920;48.748;19.142;2023-02-01T10:38:36;36.89;34.79;39.18;;
72805;Laerm;60920;48.748;19.142;2023-02-01T10:41:03;36.64;34.67;38.83;;
72805;Laerm;60920;48.748;19.142;2023-02-01T10:43:29;36.56;34.35;38.93;;
72805;Laerm;60920;48.748;19.142;2023-02-01T10:45:55;36.90;34.88;40.40;;
72805;Laerm;60920;48.748;19.142;2023-02-01T10:48:20;36.70;34.91;39.05;;
72805;Laerm;60920;48.748;19.142;2023-02-01T10:50:57;37.00;34.98;39.69;;
72805;Laerm;60920;48.748;19.142;2023-02-01T10:55:49;37.00;35.00;39.21;;
72805;Laerm;60920;48.748;19.142;2023-02-01T10:58:29;37.02;34.99;41.72;;
72805;Laerm;60920;48.748;19.142;2023-02-01T11:00:57;37.05;35.09;39.91;;
72805;Laerm;60920;48.748;19.142;2023-02-01T11:03:30;37.12;35.14;39.42;;
72805;Laerm;60920;48.748;19.142;2023-02-01T11:05:56;37.14;35.36;45.46;;
72805;Laerm;60920;48.748;19.142;2023-02-01T11:08:21;37.17;35.26;40.70;;
72805;Laerm;60920;48.748;19.142;2023-02-01T11:10:57;37.37;35.18;40.15;;
72805;Laerm;60920;48.748;19.142;2023-02-01T11:13:27;37.51;35.70;44.45;;
72805;Laerm;60920;48.748;19.142;2023-02-01T11:15:56;37.58;35.75;39.72;;
72805;Laerm;60920;48.748;19.142;2023-02-01T11:18:27;37.60;35.48;40.18;;
72805;Laerm;60920;48.748;19.142;2023-02-01T11:20:54;37.48;35.74;39.67;;
72805;Laerm;60920;48.748;19.142;2023-02-01T11:23:23;37.55;35.71;40.47;;
72805;Laerm;60920;48.748;19.142;2023-02-01T11:28:24;37.83;35.74;40.22;;
72805;Laerm;60920;48.748;19.142;2023-02-01T11:30:53;38.11;36.55;40.95;;
72805;Laerm;60920;48.748;19.142;2023-02-01T11:33:25;38.17;36.40;41.66;;
72805;Laerm;60920;48.748;19.142;2023-02-01T11:35:57;38.03;36.22;41.28;;
72805;Laerm;60920;48.748;19.142;2023-02-01T11:38:28;37.69;35.84;40.24;;
72805;Laerm;60920;48.748;19.142;2023-02-01T11:43:51;38.52;36.58;41.13;;
72805;Laerm;60920;48.748;19.142;2023-02-01T11:46:19;38.29;36.87;40.78;;
72805;Laerm;60920;48.748;19.142;2023-02-01T11:48:52;38.34;36.77;40.80;;
72805;Laerm;60920;48.748;19.142;2023-02-01T11:51:31;38.37;36.74;40.64;;
72805;Laerm;60920;48.748;19.142;2023-02-01T12:12:46;38.77;37.13;40.82;;
72805;Laerm;60920;48.748;19.142;2023-02-01T12:23:06;37.91;36.46;39.79;;
72805;Laerm;60920;48.748;19.142;2023-02-01T12:25:52;38.01;36.48;39.59;;
72805;Laerm;60920;48.748;19.142;2023-02-01T12:33:40;38.23;36.57;40.70;;
72805;Laerm;60920;48.748;19.142;2023-02-01T12:36:19;37.97;36.11;39.56;;
72805;Laerm;60920;48.748;19.142;2023-02-01T12:41:56;37.64;36.10;41.97;;
72805;Laerm;60920;48.748;19.142;2023-02-01T12:46:51;37.35;35.67;39.93;;
72805;Laerm;60920;48.748;19.142;2023-02-01T12:49:19;37.14;35.59;40.74;;
72805;Laerm;60920;48.748;19.142;2023-02-01T12:51:50;37.02;35.23;38.91;;
72805;Laerm;60920;48.748;19.142;2023-02-01T12:54:31;37.21;35.40;40.22;;
72805;Laerm;60920;48.748;19.142;2023-02-01T12:57:00;36.99;35.17;40.64;;
72805;Laerm;60920;48.748;19.142;2023-02-01T13:01:57;37.22;35.56;38.72;;
72805;Laerm;60920;48.748;19.142;2023-02-01T13:04:34;37.42;35.65;40.06;;
72805;Laerm;60920;48.748;19.142;2023-02-01T13:07:09;37.13;35.33;49.71;;
72805;Laerm;60920;48.748;19.142;2023-02-01T13:09:49;37.27;35.41;40.67;;
72805;Laerm;60920;48.748;19.142;2023-02-01T13:12:19;37.17;35.49;43.99;;
72805;Laerm;60920;48.748;19.142;2023-02-01T13:17:25;37.97;36.40;41.81;;
72805;Laerm;60920;48.748;19.142;2023-02-01T13:22:34;37.98;36.38;40.45;;
72805;Laerm;60920;48.748;19.142;2023-02-01T13:25:11;38.23;36.51;40.91;;
72805;Laerm;60920;48.748;19.142;2023-02-01T13:27:37;38.35;36.79;40.07;;
72805;Laerm;60920;48.748;19.142;2023-02-01T13:30:05;38.21;36.89;39.91;;
72805;Laerm;60920;48.748;19.142;2023-02-01T13:33:00;38.36;36.90;40.68;;
72805;Laerm;60920;48.748;19.142;2023-02-01T13:43:09;38.90;37.04;45.12;;
72805;Laerm;60920;48.748;19.142;2023-02-01T13:45:42;38.88;37.18;54.77;;
72805;Laerm;60920;48.748;19.142;2023-02-01T13:48:15;38.80;36.71;57.80;;
72805;Laerm;60920;48.748;19.142;2023-02-01T13:50:44;38.53;37.12;41.29;;
72805;Laerm;60920;48.748;19.142;2023-02-01T13:53:19;38.77;37.12;44.33;;
72805;Laerm;60920;48.748;19.142;2023-02-01T13:55:55;38.79;37.22;41.20;;
72805;Laerm;60920;48.748;19.142;2023-02-01T13:58:22;38.82;37.32;42.81;;
72805;Laerm;60920;48.748;19.142;2023-02-01T14:01:30;38.94;37.13;41.45;;
72805;Laerm;60920;48.748;19.142;2023-02-01T14:03:43;39.10;37.30;41.33;;
72805;Laerm;60920;48.748;19.142;2023-02-01T14:06:55;39.18;37.64;40.95;;
72805;Laerm;60920;48.748;19.142;2023-02-01T14:11:37;39.11;37.59;42.81;;
72805;Laerm;60920;48.748;19.142;2023-02-01T14:14:45;39.01;37.41;40.66;;
72805;Laerm;60920;48.748;19.142;2023-02-01T14:24:36;38.89;37.43;41.52;;
72805;Laerm;60920;48.748;19.142;2023-02-01T14:29:37;38.77;37.36;41.25;;
72805;Laerm;60920;48.748;19.142;2023-02-01T14:34:39;38.82;37.29;40.64;;
72805;Laerm;60920;48.748;19.142;2023-02-01T14:37:09;38.78;37.09;40.62;;
72805;Laerm;60920;48.748;19.142;2023-02-01T14:39:39;38.81;37.22;42.65;;
72805;Laerm;60920;48.748;19.142;2023-02-01T14:42:22;38.82;36.88;41.16;;
72805;Laerm;60920;48.748;19.142;2023-02-01T14:44:49;38.78;37.35;42.48;;
72805;Laerm;60920;48.748;19.142;2023-02-01T14:52:22;38.84;37.08;41.27;;
72805;Laerm;60920;48.748;19.142;2023-02-01T14:54:53;38.92;37.28;44.23;;
72805;Laerm;60920;48.748;19.142;2023-02-01T14:57:19;38.77;37.02;40.41;;
72805;Laerm;60920;48.748;19.142;2023-02-01T14:59:46;38.71;37.17;41.48;;
72805;Laerm;60920;48.748;19.142;2023-02-01T15:02:23;38.67;37.23;40.62;;
72805;Laerm;60920;48.748;19.142;2023-02-01T15:04:58;38.66;36.84;40.17;;
72805;Laerm;60920;48.748;19.142;2023-02-01T15:07:24;38.59;37.20;40.73;;
72805;Laerm;60920;48.748;19.142;2023-02-01T15:09:51;38.55;37.12;40.79;;
72805;Laerm;60920;48.748;19.142;2023-02-01T15:12:18;38.50;37.03;40.20;;
72805;Laerm;60920;48.748;19.142;2023-02-01T15:17:33;38.28;36.71;39.93;;
72805;Laerm;60920;48.748;19.142;2023-02-01T15:22:36;38.64;37.05;40.46;;
72805;Laerm;60920;48.748;19.142;2023-02-01T15:25:02;38.55;37.17;40.71;;
72805;Laerm;60920;48.748;19.142;2023-02-01T15:27:28;38.61;37.10;40.31;;
72805;Laerm;60920;48.748;19.142;2023-02-01T15:29:54;38.59;36.98;40.57;;
72805;Laerm;60920;48.748;19.142;2023-02-01T15:32:38;38.58;37.07;40.65;;
72805;Laerm;60920;48.748;19.142;2023-02-01T15:35:04;38.58;37.04;40.31;;
72805;Laerm;60920;48.748;19.142;2023-02-01T15:37:30;38.58;37.10;40.20;;
72805;Laerm;60920;48.748;19.142;2023-02-01T15:42:51;38.56;37.11;40.04;;
72805;Laerm;60920;48.748;19.142;2023-02-01T15:45:17;38.55;37.04;41.06;;
72805;Laerm;60920;48.748;19.142;2023-02-01T15:47:46;38.57;37.12;40.05;;
72805;Laerm;60920;48.748;19.142;2023-02-01T15:50:12;38.47;37.07;40.45;;
72805;Laerm;60920;48.748;19.142;2023-02-01T15:52:39;38.44;36.97;40.41;;
72805;Laerm;60920;48.748;19.142;2023-02-01T15:55:08;38.46;36.96;40.12;;
72805;Laerm;60920;48.748;19.142;2023-02-01T15:57:42;38.45;36.94;40.96;;
72805;Laerm;60920;48.748;19.142;2023-02-01T16:02:50;38.43;36.93;41.04;;